Página principal
METAR-TAF:

METAR-TAF

Aeroportos :

Caracas, Venezuela

Aeroporto Internacional Simón Bolívar

latitude: 10-36N, longitude: 066-59W, altura: 43 m

Observação actual do tempo

O boletim foi feito há 1 hora e 2 minutos, às 12:00 UTC
Vento 3 kt de este
Temperatura 24°C
Humidade 78%
Pressão 1012 hPa
Visibilidade 10 km ou mais
Poucas nuvensa uma altura de 1600 ft

METAR: SVMI 191200Z 09003KT 9999 FEW016 24/20 Q1012

Hora: 09:02 (13:02 UTC)

Previsão

O boletim foi feito há 3 horas e 2 minutos, às 10:00 UTC
Previsão válida de 19 às 12 UTC a 20 às 12 UTC
Vento 7 kt de este
Visibilidade 10 km ou mais
Poucas nuvensa uma altura de 1600 ft
Tornando-se
de 19 às 14 UTC a 19 às 18 UTC
Vento 10 kt de este
Poucas nuvensa uma altura de 1600 ft
Nuvens dispersasa uma altura de 10000 ft

TAF: SVMI 191000Z 1912/2012 09007KT 9999 FEW016 TX32/19Z TN24/09Z BECMG 1914/1918 09010KT FEW016 SCT100

Observações e previsões do tempo de mais de 4000 aeroportos (mensagens METAR e TAF).

As estações disponíveis são os pontos amarelos e vermelhos sobre o mapa.

Mova o rato sobre o mapa para ver o nome da estação.

Depois clique no ponto para visualizar as observações e previsões meteorológicas.

Para alterar o mapa : clique nos botões verdes com uma cruz preta para aumentar o zoom; no botão verde com uma pitada de zoom; ou nas setas verdes para mapas adjacentes.


METAR-TAF: